Moby Baby — ICEM — position and weather

sailwx.info

Track history (hours):
 
Tides and Currents Weather Stations Pressure Air Temp Water Temp Dewpoint Dewpoint Depression Visibility Wind Speed Wind Dir Waves Ship Positions

Moby Baby

Last reported at 2015-Jul-05 14:28 UTC. Time now 2015-Jul-05 14:59 UTC.
Position N 42°56' E 010°33'.

Length 99 m; draft 4.5 m.

Type: Ship. MMSI: 247049900.

Date/timePositionNaut miles runAvg speedWind from/ knotsBaromVisibWave heightAir tempDewpointWater temp
2015-Jul-05 14:28N 42°56' E 010°33'1213.0
2015-Jul-05 13:32N 42°49' E 010°19'6 6.4
2015-Jul-05 12:34N 42°53' E 010°26'6 2.1
2015-Jul-05 09:25N 42°56' E 010°33'1314.3
2015-Jul-05 08:33N 42°49' E 010°20'0 0.1
2015-Jul-05 07:33N 42°49' E 010°19'8 8.3
2015-Jul-05 06:33N 42°53' E 010°28'4 3.6
2015-Jul-05 05:26N 42°56' E 010°33'1213.8
2015-Jul-05 04:33N 42°49' E 010°20'0 0.2
2015-Jul-05 03:32N 42°49' E 010°19'0 0.0
2015-Jul-05 01:13N 42°49' E 010°19'0 0.0
2015-Jul-05 00:21N 42°49' E 010°19'0 0.0
2015-Jul-04 21:29N 42°49' E 010°19'0 0.0
2015-Jul-04 20:05N 42°49' E 010°19'0 0.0
2015-Jul-04 19:33N 42°49' E 010°19'1312.8
2015-Jul-04 18:33N 42°56' E 010°34'7 7.3
2015-Jul-04 17:33N 42°53' E 010°25'0 0.0
2015-Jul-04 16:33N 42°53' E 010°25'7 6.7
2015-Jul-04 15:28N 42°56' E 010°33'1313.9
2015-Jul-04 14:33N 42°49' E 010°19'6 6.2
2015-Jul-04 13:33N 42°53' E 010°26'6 6.1
2015-Jul-04 12:33N 42°56' E 010°33'1212.1
2015-Jul-04 11:33N 42°49' E 010°19'6 5.5
2015-Jul-04 10:34N 42°53' E 010°25'7 6.3
2015-Jul-04 09:28N 42°56' E 010°33'1213.3
2015-Jul-04 08:33N 42°49' E 010°20'0 0.1
2015-Jul-04 07:10N 42°49' E 010°19'813.2
2015-Jul-04 06:34N 42°53' E 010°28'4 3.8
2015-Jul-04 05:29N 42°56' E 010°33'1213.1
2015-Jul-04 04:33N 42°49' E 010°20'0 0.2
2015-Jul-04 03:33N 42°49' E 010°19'0 0.0
2015-Jul-04 02:34N 42°49' E 010°19'0 0.0
2015-Jul-04 01:34N 42°49' E 010°19'0 0.0
2015-Jul-04 00:33N 42°49' E 010°19'0 0.0
2015-Jul-03 23:33N 42°49' E 010°19'0 0.0
2015-Jul-03 22:33N 42°49' E 010°19'0 0.0
2015-Jul-03 21:33N 42°49' E 010°19'0 0.0
2015-Jul-03 20:33N 42°49' E 010°19'0 0.0
2015-Jul-03 19:34N 42°49' E 010°19'12 9.1
2015-Jul-03 18:13N 42°56' E 010°33'6 9.1
2015-Jul-03 17:33N 42°53' E 010°26'6 6.2
2015-Jul-03 16:33N 42°49' E 010°19'7 7.1
2015-Jul-03 15:33N 42°53' E 010°27'3 2.5
2015-Jul-03 14:16N 42°54' E 010°31'4 2.5
2015-Jul-03 12:33N 42°53' E 010°26'6 3.0
2015-Jul-03 10:33N 42°56' E 010°33'0 0.3
2015-Jul-03 09:28N 42°56' E 010°33'1213.5
2015-Jul-03 08:33N 42°49' E 010°19'0 0.1
2015-Jul-03 07:33N 42°49' E 010°19'8 8.2
2015-Jul-03 06:33N 42°53' E 010°28'4 4.1
2015-Jul-03 05:33N 42°56' E 010°33'1212.1
2015-Jul-03 04:33N 42°49' E 010°20'0 0.2
2015-Jul-03 03:29N 42°49' E 010°19'0 0.0
2015-Jul-03 02:33N 42°49' E 010°19'0 0.0
2015-Jul-03 01:33N 42°49' E 010°19'0 0.0
2015-Jul-02 20:34N 42°49' E 010°19'1 0.7
2015-Jul-02 19:22N 42°49' E 010°20'1111.0
2015-Jul-02 18:20N 42°56' E 010°33'6 7.6
2015-Jul-02 17:33N 42°53' E 010°26'6 5.6
2015-Jul-02 16:26N 42°49' E 010°19'6 6.3
2015-Jul-02 15:33N 42°53' E 010°25'7 6.3
2015-Jul-02 14:27N 42°56' E 010°33'1213.7
2015-Jul-02 13:33N 42°49' E 010°20'6 6.2
2015-Jul-02 12:33N 42°53' E 010°26'6 1.9
2015-Jul-02 09:23N 42°55' E 010°33'1211.0
2015-Jul-02 08:17N 42°49' E 010°19'0 0.0
2015-Jul-02 07:32N 42°49' E 010°19'8 8.3
2015-Jul-02 06:33N 42°53' E 010°28'4 4.3
2015-Jul-02 05:33N 42°56' E 010°33'1212.1
2015-Jul-02 04:33N 42°49' E 010°20'0 0.2
2015-Jul-02 03:33N 42°49' E 010°19'0 0.0
2015-Jul-02 02:17N 42°49' E 010°19'0 0.0
2015-Jul-02 01:33N 42°49' E 010°19'0 0.0
2015-Jul-01 23:29N 42°49' E 010°19'0 0.0
2015-Jul-01 22:33N 42°49' E 010°19'0 0.0
2015-Jul-01 20:12N 42°49' E 010°19'0 0.1
2015-Jul-01 19:25N 42°49' E 010°19'1314.7
2015-Jul-01 18:33N 42°56' E 010°34'6 6.5
2015-Jul-01 17:33N 42°53' E 010°26'6 6.3
2015-Jul-01 16:33N 42°49' E 010°19'5 5.5
2015-Jul-01 15:34N 42°53' E 010°25'7 6.8
2015-Jul-01 14:32N 42°56' E 010°33'1212.5
2015-Jul-01 13:33N 42°49' E 010°19'7 6.6
2015-Jul-01 12:34N 42°53' E 010°26'6 1.9
2015-Jul-01 09:31N 42°56' E 010°33'1212.7
2015-Jul-01 08:33N 42°49' E 010°20'0 0.1
2015-Jul-01 07:13N 42°49' E 010°19'812.1
2015-Jul-01 06:33N 42°54' E 010°28'4 4.1
2015-Jul-01 05:33N 42°56' E 010°33'1212.2
2015-Jul-01 04:33N 42°49' E 010°19'0 0.0
2015-Jul-01 01:27N 42°49' E 010°19'0 0.0
2015-Jul-01 00:33N 42°49' E 010°19'0 0.0
2015-Jun-30 23:28N 42°49' E 010°19'0 0.0
2015-Jun-30 22:06N 42°49' E 010°19'0 0.0
2015-Jun-30 21:28N 42°49' E 010°19'0 0.0
2015-Jun-30 20:33N 42°49' E 010°19'0 0.0
2015-Jun-30 19:26N 42°49' E 010°19'1314.4
2015-Jun-30 18:34N 42°56' E 010°34'7 6.5
2015-Jun-30 17:34N 42°53' E 010°26'6 6.3
2015-Jun-30 16:33N 42°49' E 010°19'5 5.3
2015-Jun-30 15:34N 42°52' E 010°24'7 6.8
2015-Jun-30 14:28N 42°56' E 010°33'6 3.2
2015-Jun-30 12:33N 42°53' E 010°26'6 2.9
2015-Jun-30 10:33N 42°56' E 010°33'0 0.1
2015-Jun-30 09:30N 42°56' E 010°33'1212.8
2015-Jun-30 08:33N 42°49' E 010°20'0 0.2
2015-Jun-30 07:33N 42°49' E 010°19'8 7.8
2015-Jun-30 06:33N 42°54' E 010°28'5 4.6
2015-Jun-30 05:31N 42°56' E 010°33'1213.1
2015-Jun-30 04:33N 42°49' E 010°20'0 0.2
2015-Jun-30 03:33N 42°49' E 010°19'0 0.0
2015-Jun-30 02:33N 42°49' E 010°19'0 0.0
2015-Jun-30 01:32N 42°49' E 010°19'0 0.0
2015-Jun-29 22:05N 42°49' E 010°19'0 0.0
2015-Jun-29 21:04N 42°49' E 010°19'0 0.0
2015-Jun-29 19:33N 42°49' E 010°19'1312.7
2015-Jun-29 18:33N 42°56' E 010°34'6 6.5
2015-Jun-29 17:33N 42°53' E 010°26'6 6.3
2015-Jun-29 16:33N 42°49' E 010°19'6 5.9
2015-Jun-29 15:33N 42°53' E 010°25'7 6.1
2015-Jun-29 14:29N 42°56' E 010°33'1213.2
2015-Jun-29 13:33N 42°49' E 010°20'6 6.1
2015-Jun-29 12:33N 42°53' E 010°26'6 2.0
2015-Jun-29 09:28N 42°56' E 010°33'1213.2
2015-Jun-29 08:33N 42°49' E 010°20'0 0.2
2015-Jun-29 07:29N 42°49' E 010°19'8 8.5
2015-Jun-29 06:33N 42°54' E 010°28'4 4.1
2015-Jun-29 05:28N 42°56' E 010°33'1213.3
2015-Jun-29 04:33N 42°49' E 010°19'0 0.1
2015-Jun-29 03:32N 42°49' E 010°19'0 0.0
2015-Jun-29 02:33N 42°49' E 010°19'0 0.0
2015-Jun-28 20:30N 42°49' E 010°19'0 0.0
2015-Jun-28 19:33N 42°49' E 010°19'1312.8
2015-Jun-28 18:34N 42°56' E 010°34'8 7.8
2015-Jun-28 17:33N 42°52' E 010°24'5 5.2
2015-Jun-28 16:33N 42°49' E 010°19'5 5.3
2015-Jun-28 15:33N 42°52' E 010°24'7 6.8
2015-Jun-28 14:29N 42°56' E 010°33'1213.3
2015-Jun-28 13:33N 42°49' E 010°19'6 6.1
2015-Jun-28 12:34N 42°53' E 010°25'7 2.2
2015-Jun-28 09:27N 42°56' E 010°34'13 5.6
2015-Jun-28 07:09N 42°49' E 010°19'813.0
2015-Jun-28 06:33N 42°53' E 010°28'4 4.1
2015-Jun-28 05:29N 42°56' E 010°33'12 1.5
2015-Jun-27 21:21N 42°49' E 010°19'0 0.0
2015-Jun-27 20:33N 42°49' E 010°19'0 0.0
2015-Jun-27 19:33N 42°49' E 010°19'1312.8
2015-Jun-27 18:33N 42°56' E 010°34'6 6.4
2015-Jun-27 17:33N 42°53' E 010°26'6 6.3
2015-Jun-27 16:33N 42°49' E 010°19'6 5.9
2015-Jun-27 15:33N 42°53' E 010°25'7 6.4
2015-Jun-27 14:30N 42°56' E 010°33'1213.0
2015-Jun-27 13:33N 42°49' E 010°19'6 6.1
2015-Jun-27 12:33N 42°53' E 010°25'6 6.0
2015-Jun-27 11:32N 42°56' E 010°33'0 0.0
2015-Jun-27 10:33N 42°56' E 010°33'1 1.5
2015-Jun-27 09:32N 42°54' E 010°33'11 7.9
2015-Jun-27 08:06N 42°49' E 010°19'0 0.0
2015-Jun-27 07:18N 42°49' E 010°19'811.4
2015-Jun-27 06:34N 42°54' E 010°29'4 3.5
2015-Jun-27 05:28N 42°56' E 010°33'1213.2
2015-Jun-27 04:33N 42°49' E 010°20'0 0.1
2015-Jun-27 03:31N 42°49' E 010°19'0 0.0
2015-Jun-27 02:04N 42°49' E 010°19'0 0.0
2015-Jun-27 00:33N 42°49' E 010°19'0 0.0
2015-Jun-26 23:33N 42°49' E 010°19'0 0.0
2015-Jun-26 22:32N 42°49' E 010°19'0 0.0
2015-Jun-26 21:29N 42°49' E 010°19'0 0.0
2015-Jun-26 20:04N 42°49' E 010°19'0 0.0
2015-Jun-26 19:29N 42°49' E 010°19'1313.6
2015-Jun-26 18:33N 42°56' E 010°33'6 6.5
2015-Jun-26 17:33N 42°53' E 010°26'6 6.2
2015-Jun-26 16:33N 42°49' E 010°19'6 5.6
2015-Jun-26 15:34N 42°53' E 010°25'7 6.4
2015-Jun-26 14:29N 42°56' E 010°33'1213.1
2015-Jun-26 13:33N 42°49' E 010°20'6 6.0
2015-Jun-26 12:33N 42°53' E 010°26'5 1.6
2015-Jun-26 09:18N 42°54' E 010°32'1114.6
2015-Jun-26 08:33N 42°49' E 010°19'12 5.2
2015-Jun-26 06:18N 42°55' E 010°33'1 1.3
2015-Jun-26 05:29N 42°56' E 010°33'13 6.4
2015-Jun-26 03:31N 42°49' E 010°19'0 0.0
2015-Jun-26 02:30N 42°49' E 010°19'0 0.0
2015-Jun-26 01:33N 42°49' E 010°19'0 0.0
2015-Jun-25 23:09N 42°49' E 010°19'0 0.0
2015-Jun-25 22:33N 42°49' E 010°19'0 0.0
2015-Jun-25 19:27N 42°49' E 010°19'1314.3
2015-Jun-25 18:34N 42°56' E 010°34'12 8.8
2015-Jun-25 17:10N 42°49' E 010°20'5 3.2
2015-Jun-25 15:33N 42°53' E 010°24'7 6.9
2015-Jun-25 14:32N 42°56' E 010°33'  
Track history (hours):
 
Tides and Currents Weather Stations Pressure Air Temp Water Temp Dewpoint Dewpoint Depression Visibility Wind Speed Wind Dir Waves Ship Positions

Moby Baby

Last reported at 2015-Jul-05 14:28 UTC. Time now 2015-Jul-05 14:59 UTC.
Position N 42°56' E 010°33'.

Length 99 m; draft 4.5 m.

Type: Ship. MMSI: 247049900.

Date/timePositionNaut miles runAvg speedWind from/ knotsBaromVisibWave heightAir tempDewpointWater temp
2015-Jul-05 14:28N 42°56' E 010°33'1213.0
2015-Jul-05 13:32N 42°49' E 010°19'6 6.4
2015-Jul-05 12:34N 42°53' E 010°26'6 2.1
2015-Jul-05 09:25N 42°56' E 010°33'1314.3
2015-Jul-05 08:33N 42°49' E 010°20'0 0.1
2015-Jul-05 07:33N 42°49' E 010°19'8 8.3
2015-Jul-05 06:33N 42°53' E 010°28'4 3.6
2015-Jul-05 05:26N 42°56' E 010°33'1213.8
2015-Jul-05 04:33N 42°49' E 010°20'0 0.2
2015-Jul-05 03:32N 42°49' E 010°19'0 0.0
2015-Jul-05 01:13N 42°49' E 010°19'0 0.0
2015-Jul-05 00:21N 42°49' E 010°19'0 0.0
2015-Jul-04 21:29N 42°49' E 010°19'0 0.0
2015-Jul-04 20:05N 42°49' E 010°19'0 0.0
2015-Jul-04 19:33N 42°49' E 010°19'1312.8
2015-Jul-04 18:33N 42°56' E 010°34'7 7.3
2015-Jul-04 17:33N 42°53' E 010°25'0 0.0
2015-Jul-04 16:33N 42°53' E 010°25'7 6.7
2015-Jul-04 15:28N 42°56' E 010°33'1313.9
2015-Jul-04 14:33N 42°49' E 010°19'6 6.2
2015-Jul-04 13:33N 42°53' E 010°26'6 6.1
2015-Jul-04 12:33N 42°56' E 010°33'1212.1
2015-Jul-04 11:33N 42°49' E 010°19'6 5.5
2015-Jul-04 10:34N 42°53' E 010°25'7 6.3
2015-Jul-04 09:28N 42°56' E 010°33'1213.3
2015-Jul-04 08:33N 42°49' E 010°20'0 0.1
2015-Jul-04 07:10N 42°49' E 010°19'813.2
2015-Jul-04 06:34N 42°53' E 010°28'4 3.8
2015-Jul-04 05:29N 42°56' E 010°33'1213.1
2015-Jul-04 04:33N 42°49' E 010°20'0 0.2
2015-Jul-04 03:33N 42°49' E 010°19'0 0.0
2015-Jul-04 02:34N 42°49' E 010°19'0 0.0
2015-Jul-04 01:34N 42°49' E 010°19'0 0.0
2015-Jul-04 00:33N 42°49' E 010°19'0 0.0
2015-Jul-03 23:33N 42°49' E 010°19'0 0.0
2015-Jul-03 22:33N 42°49' E 010°19'0 0.0
2015-Jul-03 21:33N 42°49' E 010°19'0 0.0
2015-Jul-03 20:33N 42°49' E 010°19'0 0.0
2015-Jul-03 19:34N 42°49' E 010°19'12 9.1
2015-Jul-03 18:13N 42°56' E 010°33'6 9.1
2015-Jul-03 17:33N 42°53' E 010°26'6 6.2
2015-Jul-03 16:33N 42°49' E 010°19'7 7.1
2015-Jul-03 15:33N 42°53' E 010°27'3 2.5
2015-Jul-03 14:16N 42°54' E 010°31'4 2.5
2015-Jul-03 12:33N 42°53' E 010°26'6 3.0
2015-Jul-03 10:33N 42°56' E 010°33'0 0.3
2015-Jul-03 09:28N 42°56' E 010°33'1213.5
2015-Jul-03 08:33N 42°49' E 010°19'0 0.1
2015-Jul-03 07:33N 42°49' E 010°19'8 8.2
2015-Jul-03 06:33N 42°53' E 010°28'4 4.1
2015-Jul-03 05:33N 42°56' E 010°33'1212.1
2015-Jul-03 04:33N 42°49' E 010°20'0 0.2
2015-Jul-03 03:29N 42°49' E 010°19'0 0.0
2015-Jul-03 02:33N 42°49' E 010°19'0 0.0
2015-Jul-03 01:33N 42°49' E 010°19'0 0.0
2015-Jul-02 20:34N 42°49' E 010°19'1 0.7
2015-Jul-02 19:22N 42°49' E 010°20'1111.0
2015-Jul-02 18:20N 42°56' E 010°33'6 7.6
2015-Jul-02 17:33N 42°53' E 010°26'6 5.6
2015-Jul-02 16:26N 42°49' E 010°19'6 6.3
2015-Jul-02 15:33N 42°53' E 010°25'7 6.3
2015-Jul-02 14:27N 42°56' E 010°33'1213.7
2015-Jul-02 13:33N 42°49' E 010°20'6 6.2
2015-Jul-02 12:33N 42°53' E 010°26'6 1.9
2015-Jul-02 09:23N 42°55' E 010°33'1211.0
2015-Jul-02 08:17N 42°49' E 010°19'0 0.0
2015-Jul-02 07:32N 42°49' E 010°19'8 8.3
2015-Jul-02 06:33N 42°53' E 010°28'4 4.3
2015-Jul-02 05:33N 42°56' E 010°33'1212.1
2015-Jul-02 04:33N 42°49' E 010°20'0 0.2
2015-Jul-02 03:33N 42°49' E 010°19'0 0.0
2015-Jul-02 02:17N 42°49' E 010°19'0 0.0
2015-Jul-02 01:33N 42°49' E 010°19'0 0.0
2015-Jul-01 23:29N 42°49' E 010°19'0 0.0
2015-Jul-01 22:33N 42°49' E 010°19'0 0.0
2015-Jul-01 20:12N 42°49' E 010°19'0 0.1
2015-Jul-01 19:25N 42°49' E 010°19'1314.7
2015-Jul-01 18:33N 42°56' E 010°34'6 6.5
2015-Jul-01 17:33N 42°53' E 010°26'6 6.3
2015-Jul-01 16:33N 42°49' E 010°19'5 5.5
2015-Jul-01 15:34N 42°53' E 010°25'7 6.8
2015-Jul-01 14:32N 42°56' E 010°33'1212.5
2015-Jul-01 13:33N 42°49' E 010°19'7 6.6
2015-Jul-01 12:34N 42°53' E 010°26'6 1.9
2015-Jul-01 09:31N 42°56' E 010°33'1212.7
2015-Jul-01 08:33N 42°49' E 010°20'0 0.1
2015-Jul-01 07:13N 42°49' E 010°19'812.1
2015-Jul-01 06:33N 42°54' E 010°28'4 4.1
2015-Jul-01 05:33N 42°56' E 010°33'1212.2
2015-Jul-01 04:33N 42°49' E 010°19'0 0.0
2015-Jul-01 01:27N 42°49' E 010°19'0 0.0
2015-Jul-01 00:33N 42°49' E 010°19'0 0.0
2015-Jun-30 23:28N 42°49' E 010°19'0 0.0
2015-Jun-30 22:06N 42°49' E 010°19'0 0.0
2015-Jun-30 21:28N 42°49' E 010°19'0 0.0
2015-Jun-30 20:33N 42°49' E 010°19'0 0.0
2015-Jun-30 19:26N 42°49' E 010°19'1314.4
2015-Jun-30 18:34N 42°56' E 010°34'7 6.5
2015-Jun-30 17:34N 42°53' E 010°26'6 6.3
2015-Jun-30 16:33N 42°49' E 010°19'5 5.3
2015-Jun-30 15:34N 42°52' E 010°24'7 6.8
2015-Jun-30 14:28N 42°56' E 010°33'6 3.2
2015-Jun-30 12:33N 42°53' E 010°26'6 2.9
2015-Jun-30 10:33N 42°56' E 010°33'0 0.1
2015-Jun-30 09:30N 42°56' E 010°33'1212.8
2015-Jun-30 08:33N 42°49' E 010°20'0 0.2
2015-Jun-30 07:33N 42°49' E 010°19'8 7.8
2015-Jun-30 06:33N 42°54' E 010°28'5 4.6
2015-Jun-30 05:31N 42°56' E 010°33'1213.1
2015-Jun-30 04:33N 42°49' E 010°20'0 0.2
2015-Jun-30 03:33N 42°49' E 010°19'0 0.0
2015-Jun-30 02:33N 42°49' E 010°19'0 0.0
2015-Jun-30 01:32N 42°49' E 010°19'0 0.0
2015-Jun-29 22:05N 42°49' E 010°19'0 0.0
2015-Jun-29 21:04N 42°49' E 010°19'0 0.0
2015-Jun-29 19:33N 42°49' E 010°19'1312.7
2015-Jun-29 18:33N 42°56' E 010°34'6 6.5
2015-Jun-29 17:33N 42°53' E 010°26'6 6.3
2015-Jun-29 16:33N 42°49' E 010°19'6 5.9
2015-Jun-29 15:33N 42°53' E 010°25'7 6.1
2015-Jun-29 14:29N 42°56' E 010°33'1213.2
2015-Jun-29 13:33N 42°49' E 010°20'6 6.1
2015-Jun-29 12:33N 42°53' E 010°26'6 2.0
2015-Jun-29 09:28N 42°56' E 010°33'1213.2
2015-Jun-29 08:33N 42°49' E 010°20'0 0.2
2015-Jun-29 07:29N 42°49' E 010°19'8 8.5
2015-Jun-29 06:33N 42°54' E 010°28'4 4.1
2015-Jun-29 05:28N 42°56' E 010°33'1213.3
2015-Jun-29 04:33N 42°49' E 010°19'0 0.1
2015-Jun-29 03:32N 42°49' E 010°19'0 0.0
2015-Jun-29 02:33N 42°49' E 010°19'0 0.0
2015-Jun-28 20:30N 42°49' E 010°19'0 0.0
2015-Jun-28 19:33N 42°49' E 010°19'1312.8
2015-Jun-28 18:34N 42°56' E 010°34'8 7.8
2015-Jun-28 17:33N 42°52' E 010°24'5 5.2
2015-Jun-28 16:33N 42°49' E 010°19'5 5.3
2015-Jun-28 15:33N 42°52' E 010°24'7 6.8
2015-Jun-28 14:29N 42°56' E 010°33'1213.3
2015-Jun-28 13:33N 42°49' E 010°19'6 6.1
2015-Jun-28 12:34N 42°53' E 010°25'7 2.2
2015-Jun-28 09:27N 42°56' E 010°34'13 5.6
2015-Jun-28 07:09N 42°49' E 010°19'813.0
2015-Jun-28 06:33N 42°53' E 010°28'4 4.1
2015-Jun-28 05:29N 42°56' E 010°33'12 1.5
2015-Jun-27 21:21N 42°49' E 010°19'0 0.0
2015-Jun-27 20:33N 42°49' E 010°19'0 0.0
2015-Jun-27 19:33N 42°49' E 010°19'1312.8
2015-Jun-27 18:33N 42°56' E 010°34'6 6.4
2015-Jun-27 17:33N 42°53' E 010°26'6 6.3
2015-Jun-27 16:33N 42°49' E 010°19'6 5.9
2015-Jun-27 15:33N 42°53' E 010°25'7 6.4
2015-Jun-27 14:30N 42°56' E 010°33'1213.0
2015-Jun-27 13:33N 42°49' E 010°19'6 6.1
2015-Jun-27 12:33N 42°53' E 010°25'6 6.0
2015-Jun-27 11:32N 42°56' E 010°33'0 0.0
2015-Jun-27 10:33N 42°56' E 010°33'1 1.5
2015-Jun-27 09:32N 42°54' E 010°33'11 7.9
2015-Jun-27 08:06N 42°49' E 010°19'0 0.0
2015-Jun-27 07:18N 42°49' E 010°19'811.4
2015-Jun-27 06:34N 42°54' E 010°29'4 3.5
2015-Jun-27 05:28N 42°56' E 010°33'1213.2
2015-Jun-27 04:33N 42°49' E 010°20'0 0.1
2015-Jun-27 03:31N 42°49' E 010°19'0 0.0
2015-Jun-27 02:04N 42°49' E 010°19'0 0.0
2015-Jun-27 00:33N 42°49' E 010°19'0 0.0
2015-Jun-26 23:33N 42°49' E 010°19'0 0.0
2015-Jun-26 22:32N 42°49' E 010°19'0 0.0
2015-Jun-26 21:29N 42°49' E 010°19'0 0.0
2015-Jun-26 20:04N 42°49' E 010°19'0 0.0
2015-Jun-26 19:29N 42°49' E 010°19'1313.6
2015-Jun-26 18:33N 42°56' E 010°33'6 6.5
2015-Jun-26 17:33N 42°53' E 010°26'6 6.2
2015-Jun-26 16:33N 42°49' E 010°19'6 5.6
2015-Jun-26 15:34N 42°53' E 010°25'7 6.4
2015-Jun-26 14:29N 42°56' E 010°33'1213.1
2015-Jun-26 13:33N 42°49' E 010°20'6 6.0
2015-Jun-26 12:33N 42°53' E 010°26'5 1.6
2015-Jun-26 09:18N 42°54' E 010°32'1114.6
2015-Jun-26 08:33N 42°49' E 010°19'12 5.2
2015-Jun-26 06:18N 42°55' E 010°33'1 1.3
2015-Jun-26 05:29N 42°56' E 010°33'13 6.4
2015-Jun-26 03:31N 42°49' E 010°19'0 0.0
2015-Jun-26 02:30N 42°49' E 010°19'0 0.0
2015-Jun-26 01:33N 42°49' E 010°19'0 0.0
2015-Jun-25 23:09N 42°49' E 010°19'0 0.0
2015-Jun-25 22:33N 42°49' E 010°19'0 0.0
2015-Jun-25 19:27N 42°49' E 010°19'1314.3
2015-Jun-25 18:34N 42°56' E 010°34'12 8.8
2015-Jun-25 17:10N 42°49' E 010°20'5 3.2
2015-Jun-25 15:33N 42°53' E 010°24'7 6.9
2015-Jun-25 14:32N 42°56' E 010°33'  

Dump ship's entire track history